Decoded Metar for PANV (ANVIK in AK, USA) (IATA:ANV) | Meteo·Mobile Aviation Weather
aviador You're here:

PANV Decoded Metar

ANVIK in AK, USA
Report Time2018-10-23 07:56:00
UTC Time2018-10-23 09:34:32
Flight Rules Old
Wind030° at 07 kt
W.Decomp.*RWY 35: 6.3 kt HW 3.0 kt RCW
W.Rank030° ranks 2
Current wind is below 030° avg. (9.2)
Visibility9999 m
Phenomena:Light Rain
Clouds:Overcast 025 Hf
Ceiling2,500 ft
Temp01°C (ISA -13)
Dew Point01°C (100% RH)
AAT-3.4°C
QNH995 hPa
Density Alt-594 ft
Elevation325 ft
Report Wrong Elevation
Raw Report
PANV 230756Z AUTO 03007KT 10SM -RA OVC025 01/01 A2939 RMK AO2
SLP973 P0001 T00110006 FZRANO=

Extra information for PANV:More info

Metar Taf Metar & Taf Last 4 Metars F.Rules Stats Wind Profile Meteogram Temp Stats Airport Information Weather charts Add Link Nearby VenuesMetar ALERT Operation Metar Decoded Social comments

AIRNAV info for PANV